ADDS METAR Data INFO
IDs: Format: Raw Decoded Include TAF

Data at: 2047 UTC 19 Jul 2018

KHDC 192035Z AUTO 31003KT 10SM SCT034 33/25 A2990 RMK AO2 LTG DSNT E
KHDC 192015Z AUTO 29006KT 10SM SCT032 SCT040 33/25 A2991 RMK AO2 LTG DSNT E
KHDC 191955Z AUTO 26007KT 10SM SCT032 SCT041 32/25 A2991 RMK AO2
KHDC 191935Z AUTO 28007KT 10SM SCT032 SCT042 SCT120 32/26 A2992 RMK AO2 LTG DSNT SE
KHDC 191915Z AUTO 27006KT 10SM SCT030 SCT120 32/25 A2992 RMK AO2
KHDC 191855Z AUTO 31005KT 10SM SCT030 SCT120 32/25 A2993 RMK AO2
KHDC 191835Z AUTO 30006KT 10SM SCT120 32/26 A2994 RMK AO2 LTG DSNT SE
KHDC 191815Z AUTO 29006KT 10SM SCT120 32/25 A2994 RMK AO2
KHDC 191755Z AUTO 30008KT 10SM SCT018 31/25 A2995 RMK AO2
KHDC 191735Z AUTO 31006KT 10SM SCT018 31/26 A2995 RMK AO2
KHDC 191715Z AUTO 32003KT 10SM SCT018 SCT120 30/26 A2996 RMK AO2
KHDC 191655Z AUTO 28008KT 10SM SCT016 SCT120 30/25 A2996 RMK AO2
KHDC 191635Z AUTO 32007KT 10SM SCT016 SCT120 30/25 A2997 RMK AO2
KHDC 191615Z AUTO 31009KT 10SM SCT120 29/25 A2997 RMK AO2
KHDC 191555Z AUTO 30010KT 10SM CLR 28/25 A2997 RMK AO2
KHDC 191535Z AUTO 29008KT 10SM SCT011 SCT120 28/26 A2997 RMK AO2
KHDC 191515Z AUTO 30005KT 10SM SCT009 SCT120 27/26 A2997 RMK AO2
KHDC 191455Z AUTO 29006KT 10SM CLR 27/25 A2997 RMK AO2
KHDC 191435Z AUTO 29005KT 10SM CLR 26/25 A2997 RMK AO2
KHDC 191415Z AUTO 26003KT 10SM SCT120 26/25 A2997 RMK AO2
KHDC 191355Z AUTO 27003KT 7SM BKN120 25/25 A2997 RMK AO2
KHDC 191335Z AUTO 00000KT 7SM SCT120 25/24 A2997 RMK AO2
KHDC 191315Z AUTO 00000KT 10SM OVC120 24/23 A2997 RMK AO2
KHDC 191255Z AUTO 00000KT 7SM BKN120 23/23 A2998 RMK AO2
KHDC 191235Z AUTO 00000KT 7SM BKN120 23/23 A2997 RMK AO2
KHDC 191215Z AUTO 00000KT 10SM OVC120 23/23 A2997 RMK AO2
KHDC 191155Z AUTO 00000KT 10SM BKN120 23/23 A2997 RMK AO2
KHDC 191135Z AUTO 00000KT 10SM SCT120 23/23 A2996 RMK AO2
KHDC 191115Z AUTO 00000KT 7SM CLR 22/22 A2996 RMK AO2
KHDC 191055Z AUTO 00000KT 10SM CLR 22/22 A2995 RMK AO2
KHDC 191035Z AUTO 00000KT 7SM CLR 22/22 A2995 RMK AO2 LTG DSNT S
KHDC 191015Z AUTO 00000KT 10SM CLR 22/22 A2994 RMK AO2 LTG DSNT S
KHDC 190955Z AUTO 00000KT 7SM CLR 22/22 A2994 RMK AO2
KHDC 190935Z AUTO 00000KT 7SM CLR 22/22 A2994 RMK AO2
KHDC 190915Z AUTO 00000KT 10SM CLR 22/22 A2993 RMK AO2
KHDC 190855Z AUTO 00000KT 7SM CLR 22/22 A2993 RMK AO2
KHDC 190835Z AUTO 00000KT 7SM CLR 22/22 A2992 RMK AO2
KHDC 190815Z AUTO 00000KT 5SM BR CLR 22/22 A2993 RMK AO2
KHDC 190755Z AUTO 00000KT 5SM BR CLR 23/22 A2992 RMK AO2
KHDC 190735Z AUTO 00000KT 5SM BR CLR 23/22 A2992 RMK AO2
KHDC 190715Z AUTO 00000KT 7SM CLR 23/23 A2992 RMK AO2
KHDC 190655Z AUTO 00000KT 4SM BR CLR 22/22 A2993 RMK AO2
KHDC 190635Z AUTO 00000KT 10SM CLR 23/23 A2993 RMK AO2
KHDC 190615Z AUTO 00000KT 4SM BR CLR 23/22 A2992 RMK AO2
KHDC 190555Z AUTO 15003KT 5SM BR CLR 23/23 A2993 RMK AO2
KHDC 190535Z AUTO 00000KT 7SM CLR 23/23 A2993 RMK AO2
KHDC 190515Z AUTO 00000KT 5SM BR CLR 23/23 A2993 RMK AO2
KHDC 190455Z AUTO 00000KT 7SM CLR 23/23 A2994 RMK AO2
KHDC 190435Z AUTO 00000KT 7SM SCT004 23/23 A2994 RMK AO2
KHDC 190415Z AUTO 00000KT 7SM SCT004 23/23 A2994 RMK AO2
KHDC 190355Z AUTO 30003KT 10SM SCT004 23/23 A2994 RMK AO2
KHDC 190335Z AUTO 29003KT 10SM CLR 23/23 A2995 RMK AO2
KHDC 190315Z AUTO 00000KT 10SM CLR 23/23 A2995 RMK AO2
KHDC 190255Z AUTO 00000KT 7SM CLR 23/23 A2995 RMK AO2 P0001
KHDC 190235Z AUTO 00000KT 10SM -RA SCT075 BKN110 23/23 A2995 RMK AO2 P0001
KHDC 190215Z AUTO 17003KT 10SM -RA BKN110 23/23 A2996 RMK AO2
KHDC 190155Z AUTO 16004KT 10SM -RA BKN120 23/23 A2996 RMK AO2 P0009
KHDC 190135Z AUTO 15003KT 7SM -RA SCT012 BKN080 OVC110 23/23 A2997 RMK AO2 LTG DSNT E P0008
KHDC 190115Z AUTO 12004KT 5SM -TSRA SCT060 BKN090 OVC110 23/23 A2998 RMK AO2 LTG DSNT ALQS P0006
KHDC 190055Z AUTO 00000KT 4SM TSRA SCT075 BKN090 OVC110 23/23 A2999 RMK AO2 LTG DSNT ALQS P0013
KHDC 190035Z AUTO 21005KT 5SM TSRA SCT075 OVC090 23/23 A2998 RMK AO2 LTG DSNT ALQS P0008
KHDC 190015Z AUTO 20006KT 5SM VCTSRA SCT070 OVC090 23/23 A2997 RMK AO2 LTG DSNT ALQS P0004
KHDC 182355Z AUTO 00000KT 5SM -VCTSRA SCT031 BKN080 OVC090 23/22 A2997 RMK AO2 LTG DSNT ALQS P0108
KHDC 182335Z AUTO 12006KT 1 3/4SM TSRA BKN014 BKN032 OVC044 22/22 A2998 RMK AO2 LTG DSNT ALQS P0104
KHDC 182315Z AUTO 29012G18KT 1SM +TSRA BKN006 OVC013 23/22 A2999 RMK AO2 LTG DSNT ALQS P0071
KHDC 182255Z AUTO 36013G17KT 1 1/2SM +TSRA BKN006 BKN011 OVC016 23/22 A3000 RMK AO2 LTG DSNT ALQS P0033
KHDC 182235Z AUTO 02017G24KT 4SM +TSRA SCT009 BKN029 OVC080 25/23 A2998 RMK AO2 LTG DSNT NW THRU E P0002
KHDC 182215Z AUTO 22003KT 7SM VCTSDZ SCT040 BKN050 OVC080 27/24 A2995 RMK AO2 LTG DSNT NW THRU E
KHDC 182155Z AUTO 00000KT 7SM -VCTSDZ SCT034 BKN044 OVC075 27/24 A2993 RMK AO2 LTG DSNT NW THRU NE
KHDC 182135Z AUTO 29004KT 10SM SCT029 SCT033 BKN080 28/23 A2994 RMK AO2 LTG DSNT N THRU E
KHDC 182115Z AUTO 25007KT 10SM SCT022 SCT029 SCT060 29/23 A2993 RMK AO2 LTG DSNT N AND NE
KHDC 182055Z AUTO 25010G18KT 10SM SCT022 SCT031 BKN080 30/23 A2993 RMK AO2 LTG DSNT W THRU NE
KHDC 182035Z AUTO 21007KT 10SM SCT022 BKN080 BKN110 30/26 A2995 RMK AO2 LTG DSNT N AND SW
KHDC 182015Z AUTO 22006KT 10SM SCT022 BKN080 30/26 A2995 RMK AO2 LTG DSNT E SW AND W
KHDC 181955Z AUTO 22005KT 10SM SCT016 SCT024 BKN080 30/26 A2995 RMK AO2 LTG DSNT NE SW AND W
KHDC 181935Z AUTO 22004KT 10SM SCT031 BKN080 30/26 A2995 RMK AO2 LTG DSNT E AND SW
KHDC 181915Z AUTO 23006KT 10SM SCT090 SCT110 30/26 A2998 RMK AO2 LTG DSNT E
KHDC 181855Z AUTO 24004KT 10SM BKN100 28/26 A2999 RMK AO2 LTG DSNT S
KHDC 181835Z AUTO 27004KT 10SM BKN100 BKN120 28/25 A3000 RMK AO2 LTG DSNT E
KHDC 181815Z AUTO 28005KT 10SM SCT100 28/25 A3000 RMK AO2
KHDC 181755Z AUTO 28005KT 10SM SCT100 28/25 A3000 RMK AO2
KHDC 181735Z AUTO 29008KT 10SM SCT110 28/25 A3000 RMK AO2 LTG DSNT SE
KHDC 181715Z AUTO 27005KT 10SM BKN080 BKN110 29/25 A3000 RMK AO2 LTG DSNT SE
KHDC 181655Z AUTO 28005KT 10SM OVC080 27/23 A3001 RMK AO2 LTG DSNT SE
KHDC 181635Z AUTO 28004KT 10SM BKN090 28/24 A3002 RMK AO2 LTG DSNT SE AND S
KHDC 181615Z AUTO 29005KT 10SM BKN090 BKN110 27/24 A3002 RMK AO2 LTG DSNT SE
KHDC 181555Z AUTO 32004KT 10SM BKN090 BKN110 27/25 A3002 RMK AO2
KHDC 181535Z AUTO 32006KT 10SM SCT080 SCT110 27/25 A3002 RMK AO2 LTG DSNT SE
KHDC 181515Z AUTO 36004KT 10SM SCT060 BKN070 27/25 A3002 RMK AO2
KHDC 181455Z AUTO 33005KT 10SM SCT060 BKN080 BKN090 26/25 A3003 RMK AO2 LTG DSNT SE
KHDC 181435Z AUTO 32006KT 10SM SCT080 SCT110 27/25 A3003 RMK AO2
KHDC 181415Z AUTO 31007KT 10SM CLR 27/25 A3003 RMK AO2 LTG DSNT SE
KHDC 181355Z AUTO 29006KT 10SM BKN110 27/25 A3002 RMK AO2
KHDC 181335Z AUTO 29006KT 10SM BKN120 26/25 A3003 RMK AO2 LTG DSNT N AND SE
KHDC 181315Z AUTO 30006KT 10SM SCT120 26/25 A3002 RMK AO2
KHDC 181255Z AUTO 29005KT 10SM SCT080 26/25 A3002 RMK AO2
KHDC 181235Z AUTO 30003KT 10SM SCT080 SCT120 26/25 A3002 RMK AO2
KHDC 181215Z AUTO 30006KT 10SM BKN120 26/25 A3001 RMK AO2
KHDC 181155Z AUTO 30004KT 10SM BKN120 26/25 A3001 RMK AO2 LTG DSNT SE
KHDC 181135Z AUTO 29005KT 10SM BKN120 26/25 A3001 RMK AO2
KHDC 181115Z AUTO 29004KT 10SM OVC120 26/25 A3000 RMK AO2
KHDC 181055Z AUTO 26005KT 10SM OVC120 26/25 A3000 RMK AO2 LTG DSNT SE
KHDC 181035Z AUTO 25005KT 10SM SCT100 OVC120 26/25 A3001 RMK AO2
KHDC 181015Z AUTO 26003KT 10SM SCT080 OVC120 26/25 A3000 RMK AO2
KHDC 180955Z AUTO 27003KT 7SM BKN080 OVC120 26/25 A3000 RMK AO2
KHDC 180935Z AUTO 00000KT 7SM OVC080 26/25 A3000 RMK AO2
KHDC 180915Z AUTO 00000KT 7SM OVC080 26/25 A3000 RMK AO2
KHDC 180855Z AUTO 00000KT 7SM OVC090 25/25 A3000 RMK AO2